createdAt,value
2023-01-20T00:01:38.756Z,10.73
2023-01-20T00:04:05.758Z,11.45
2023-01-20T00:06:32.929Z,10.00
2023-01-20T00:09:01.466Z,10.57
2023-01-20T00:11:28.956Z,10.43
2023-01-20T00:13:57.404Z,10.38
2023-01-20T00:16:24.548Z,9.95
2023-01-20T00:18:51.458Z,10.48
2023-01-20T00:21:18.839Z,10.40
2023-01-20T00:23:46.940Z,11.23
2023-01-20T00:26:19.663Z,9.77
2023-01-20T00:28:47.457Z,11.77
2023-01-20T00:31:15.194Z,11.55
2023-01-20T00:33:41.987Z,12.40
2023-01-20T00:38:36.023Z,12.40
2023-01-20T00:41:03.073Z,11.52
2023-01-20T00:43:29.637Z,12.95
2023-01-20T00:45:56.161Z,11.57
2023-01-20T00:48:22.714Z,11.15
2023-01-20T00:50:49.451Z,11.63
2023-01-20T00:55:42.419Z,11.15
2023-01-20T00:58:08.931Z,10.55
2023-01-20T01:00:35.857Z,12.32
2023-01-20T01:03:02.763Z,11.10
2023-01-20T01:05:29.281Z,10.25
2023-01-20T01:07:55.781Z,11.43
2023-01-20T01:10:22.281Z,10.10
2023-01-20T01:12:48.816Z,9.95
2023-01-20T01:15:15.584Z,10.30
2023-01-20T01:20:12.450Z,9.80
2023-01-20T01:22:39.268Z,10.45
2023-01-20T01:27:32.615Z,10.27
2023-01-20T01:29:59.123Z,10.32
2023-01-20T01:32:25.679Z,10.88
2023-01-20T01:34:52.168Z,10.23
2023-01-20T01:37:18.826Z,11.05
2023-01-20T01:39:45.441Z,11.18
2023-01-20T01:42:13.347Z,11.13
2023-01-20T01:45:12.402Z,10.57
2023-01-20T01:47:57.948Z,10.32
2023-01-20T01:50:31.069Z,10.23
2023-01-20T01:52:57.846Z,11.15
2023-01-20T01:57:56.136Z,10.50
2023-01-20T02:00:22.952Z,10.65
2023-01-20T02:05:17.650Z,10.43
2023-01-20T02:07:47.564Z,10.68
2023-01-20T02:10:16.150Z,9.32
2023-01-20T02:12:47.331Z,9.93
2023-01-20T02:15:14.481Z,9.95
2023-01-20T02:17:53.988Z,10.23
2023-01-20T02:20:47.884Z,11.10
2023-01-20T02:23:32.553Z,9.38
2023-01-20T02:26:36.098Z,9.50
2023-01-20T02:29:14.858Z,9.15
2023-01-20T02:32:25.717Z,10.05
2023-01-20T02:34:55.754Z,9.85
2023-01-20T02:37:26.880Z,10.10
2023-01-20T02:40:13.034Z,9.93
2023-01-20T02:42:43.223Z,10.45
2023-01-20T02:45:16.240Z,10.32
2023-01-20T02:48:06.043Z,10.52
2023-01-20T02:50:43.745Z,10.32
2023-01-20T02:53:13.643Z,9.93
2023-01-20T02:55:47.296Z,11.63
2023-01-20T02:58:19.582Z,11.75
2023-01-20T03:00:58.163Z,11.13
2023-01-20T03:03:30.710Z,10.27
2023-01-20T03:06:00.563Z,9.40
2023-01-20T03:08:30.858Z,10.27
2023-01-20T03:11:04.022Z,9.80
2023-01-20T03:13:52.595Z,9.65
2023-01-20T03:16:22.469Z,9.68
2023-01-20T03:18:50.364Z,10.20
2023-01-20T03:21:17.259Z,9.35
2023-01-20T03:23:50.623Z,9.55
2023-01-20T03:26:19.666Z,8.95
2023-01-20T03:28:48.852Z,9.20
2023-01-20T03:31:18.094Z,9.18
2023-01-20T03:33:47.088Z,9.52
2023-01-20T03:36:15.411Z,10.25
2023-01-20T03:38:43.744Z,10.05
2023-01-20T03:41:24.382Z,9.27
2023-01-20T03:43:53.631Z,9.13
2023-01-20T03:46:32.635Z,10.35
2023-01-20T03:49:17.928Z,9.45
2023-01-20T03:51:54.502Z,9.70
2023-01-20T03:54:27.156Z,10.17
2023-01-20T03:56:58.112Z,9.77
2023-01-20T03:59:25.459Z,10.00
2023-01-20T04:01:54.181Z,9.13
2023-01-20T04:04:21.569Z,10.05
2023-01-20T04:06:50.879Z,10.18
2023-01-20T04:09:23.924Z,10.85
2023-01-20T04:11:50.938Z,10.40
2023-01-20T04:14:17.676Z,9.77
2023-01-20T04:19:16.752Z,9.93
2023-01-20T04:21:48.575Z,10.13
2023-01-20T04:24:19.269Z,9.10
2023-01-20T04:26:45.832Z,9.07
2023-01-20T04:29:13.326Z,9.07
2023-01-20T04:31:39.992Z,9.38
2023-01-20T04:34:06.757Z,10.15
2023-01-20T04:36:33.245Z,9.77
2023-01-20T04:38:59.756Z,9.48
2023-01-20T04:41:26.225Z,10.15
2023-01-20T04:43:52.788Z,10.35
2023-01-20T04:46:19.649Z,9.85
2023-01-20T04:48:46.501Z,10.20
2023-01-20T04:53:39.884Z,9.20
2023-01-20T04:56:12.086Z,9.55
2023-01-20T04:58:39.397Z,10.60
2023-01-20T05:01:05.982Z,10.15
2023-01-20T05:03:32.597Z,10.05
2023-01-20T05:05:59.100Z,10.68
2023-01-20T05:08:25.591Z,9.65
2023-01-20T05:10:52.101Z,10.60
2023-01-20T05:13:18.636Z,7.43
2023-01-20T05:15:45.292Z,7.20
2023-01-20T05:18:11.880Z,6.93
2023-01-20T05:20:38.348Z,9.15
2023-01-20T05:23:04.985Z,7.80
2023-01-20T05:25:31.504Z,9.07
2023-01-20T05:27:58.900Z,9.32
2023-01-20T05:30:25.545Z,7.75
2023-01-20T05:32:52.330Z,8.45
2023-01-20T05:35:18.906Z,8.90
2023-01-20T05:37:45.747Z,8.35
2023-01-20T05:42:39.589Z,8.27
2023-01-20T05:45:06.953Z,9.25
2023-01-20T05:47:33.448Z,8.95
2023-01-20T05:49:59.881Z,8.55
2023-01-20T05:52:26.355Z,8.65
2023-01-20T05:54:52.809Z,9.32
2023-01-20T05:57:19.271Z,9.43
2023-01-20T05:59:47.760Z,9.18
2023-01-20T06:02:18.800Z,9.63
2023-01-20T06:04:49.046Z,10.70
2023-01-20T06:07:15.766Z,9.88
2023-01-20T06:09:42.350Z,9.40
2023-01-20T06:12:08.860Z,11.27
2023-01-20T06:14:35.308Z,12.35
2023-01-20T06:17:02.002Z,15.10
2023-01-20T06:19:28.478Z,14.50
2023-01-20T06:21:54.982Z,12.05
2023-01-20T06:24:21.442Z,10.68
2023-01-20T06:26:50.947Z,9.30
2023-01-20T06:29:17.713Z,9.95
2023-01-20T06:34:12.140Z,10.00
2023-01-20T06:36:38.906Z,10.75
2023-01-20T06:41:31.780Z,9.98
2023-01-20T06:43:58.290Z,9.75
2023-01-20T06:46:24.807Z,10.40
2023-01-20T06:48:51.722Z,10.65
2023-01-20T06:51:20.023Z,10.18
2023-01-20T06:53:47.299Z,10.70
2023-01-20T06:56:15.557Z,10.13
2023-01-20T06:58:42.528Z,10.73
2023-01-20T07:01:30.331Z,11.45
2023-01-20T07:06:32.729Z,11.18
2023-01-20T07:09:00.391Z,10.82
2023-01-20T07:11:28.562Z,10.63
2023-01-20T07:13:55.020Z,10.07
2023-01-20T07:16:21.574Z,11.30
2023-01-20T07:18:50.435Z,10.88
2023-01-20T07:21:17.834Z,10.82
2023-01-20T07:23:44.578Z,10.45
2023-01-20T07:26:13.377Z,10.90
2023-01-20T07:28:40.261Z,11.35
2023-01-20T07:31:09.041Z,11.57
2023-01-20T07:33:36.829Z,11.38
2023-01-20T07:36:04.262Z,11.88
2023-01-20T07:38:31.169Z,13.65
2023-01-20T07:41:04.746Z,18.48
2023-01-20T07:43:32.046Z,14.35
2023-01-20T07:46:00.321Z,13.50
2023-01-20T07:48:28.008Z,14.70
2023-01-20T07:51:02.225Z,12.02
2023-01-20T07:53:29.616Z,12.82
2023-01-20T07:55:56.059Z,14.60
2023-01-20T07:58:22.587Z,12.23
2023-01-20T08:00:49.239Z,11.70
2023-01-20T08:03:16.400Z,11.52
2023-01-20T08:05:43.091Z,11.70
2023-01-20T08:08:09.648Z,15.60
2023-01-20T08:10:37.279Z,18.30
2023-01-20T08:13:04.003Z,17.70
2023-01-20T08:15:30.695Z,16.00
2023-01-20T08:17:58.696Z,15.70
2023-01-20T08:20:25.303Z,13.48
2023-01-20T08:22:51.856Z,12.93
2023-01-20T08:25:18.382Z,13.73
2023-01-20T08:27:47.415Z,11.70
2023-01-20T08:30:14.129Z,12.10
2023-01-20T08:32:40.662Z,11.10
2023-01-20T08:35:07.421Z,11.63
2023-01-20T08:37:36.807Z,13.23
2023-01-20T08:40:06.612Z,11.95
2023-01-20T08:42:33.157Z,11.93
2023-01-20T08:44:59.853Z,12.20
2023-01-20T08:49:54.018Z,11.18
2023-01-20T08:52:20.600Z,11.95
2023-01-20T08:54:47.290Z,11.15
2023-01-20T08:57:15.187Z,11.55
2023-01-20T08:59:41.773Z,11.38
2023-01-20T09:02:11.970Z,11.88
2023-01-20T09:04:38.712Z,11.70
2023-01-20T09:07:05.564Z,11.38
2023-01-20T09:11:58.618Z,9.95
2023-01-20T09:14:25.457Z,11.10
2023-01-20T09:32:02.452Z,9.27
2023-01-20T09:34:29.649Z,10.38
2023-01-20T09:37:21.531Z,10.70
2023-01-20T09:40:06.806Z,10.52
2023-01-20T09:43:20.008Z,9.63
2023-01-20T09:46:28.396Z,10.75
2023-01-20T09:49:16.768Z,10.02
2023-01-20T09:52:15.157Z,9.18
2023-01-20T09:54:47.779Z,11.40
2023-01-20T09:57:15.064Z,8.98
2023-01-20T09:59:49.929Z,9.75
2023-01-20T10:02:28.392Z,9.80
2023-01-20T10:05:00.690Z,9.80
2023-01-20T10:08:02.132Z,9.13
2023-01-20T10:10:40.071Z,9.18
2023-01-20T10:13:10.987Z,8.77
2023-01-20T10:15:47.381Z,8.80
2023-01-20T10:18:35.411Z,10.33
2023-01-20T10:23:49.113Z,9.55
2023-01-20T10:26:21.609Z,9.52
2023-01-20T10:28:55.660Z,9.52
2023-01-20T10:31:28.403Z,10.07
2023-01-20T10:34:01.795Z,9.55
2023-01-20T10:36:30.357Z,9.10
2023-01-20T10:39:04.509Z,9.63
2023-01-20T10:41:30.989Z,8.88
2023-01-20T10:43:59.729Z,9.35
2023-01-20T10:46:58.418Z,8.18
2023-01-20T10:49:37.117Z,8.48
2023-01-20T10:52:18.902Z,8.90
2023-01-20T10:55:07.118Z,8.45
2023-01-20T10:57:34.728Z,8.75
2023-01-20T11:00:06.807Z,8.40
2023-01-20T11:02:35.753Z,8.48
2023-01-20T11:05:16.531Z,8.60
2023-01-20T11:07:44.452Z,8.60
2023-01-20T11:10:21.839Z,8.35
2023-01-20T11:15:22.313Z,7.57
2023-01-20T11:18:16.589Z,7.35
2023-01-20T11:21:10.817Z,7.38
2023-01-20T11:23:52.405Z,7.50
2023-01-20T11:26:22.326Z,8.45
2023-01-20T11:28:57.969Z,7.88
2023-01-20T11:31:45.516Z,8.35
2023-01-20T11:34:35.839Z,7.57
2023-01-20T11:37:05.357Z,7.18
2023-01-20T11:39:50.163Z,7.93
2023-01-20T11:42:17.958Z,7.85
2023-01-20T11:45:20.712Z,8.40
2023-01-20T11:48:00.683Z,9.05
2023-01-20T11:50:33.703Z,8.23
2023-01-20T11:53:15.915Z,8.50
2023-01-20T11:55:50.401Z,7.43
2023-01-20T11:58:20.259Z,8.50
2023-01-20T12:00:47.234Z,8.32
2023-01-20T12:03:32.830Z,7.38
2023-01-20T12:06:02.902Z,7.18
2023-01-20T12:08:51.230Z,6.97
2023-01-20T12:11:27.530Z,8.35
2023-01-20T12:14:20.719Z,7.65
2023-01-20T12:16:55.369Z,6.95
2023-01-20T12:19:30.010Z,7.40
2023-01-20T12:22:03.246Z,8.35
2023-01-20T12:25:04.403Z,7.90
2023-01-20T12:27:31.123Z,9.02
2023-01-20T12:30:03.364Z,7.90
2023-01-20T12:32:31.644Z,7.25
2023-01-20T12:34:58.150Z,7.72
2023-01-20T12:37:55.097Z,7.82
2023-01-20T12:40:21.500Z,7.05
2023-01-20T12:43:03.157Z,7.15
2023-01-20T12:45:37.384Z,6.97
2023-01-20T12:48:20.841Z,7.78
2023-01-20T12:51:01.553Z,7.97
2023-01-20T12:54:05.013Z,7.78
2023-01-20T12:56:40.534Z,7.57
2023-01-20T12:59:36.741Z,7.40
2023-01-20T13:02:37.772Z,7.70
2023-01-20T13:05:48.838Z,7.90
2023-01-20T13:08:24.632Z,6.82
2023-01-20T13:11:26.223Z,7.10
2023-01-20T13:14:16.047Z,7.05
2023-01-20T13:17:08.391Z,6.88
2023-01-20T13:19:41.518Z,6.57
2023-01-20T13:22:12.603Z,7.20
2023-01-20T13:24:43.388Z,6.72
2023-01-20T13:27:12.161Z,7.53
2023-01-20T13:29:53.450Z,7.72
2023-01-20T13:32:43.737Z,7.53
2023-01-20T13:35:25.262Z,6.90
2023-01-20T13:37:59.978Z,6.60
2023-01-20T13:40:38.459Z,7.18
2023-01-20T13:43:23.893Z,7.53
2023-01-20T13:46:15.192Z,7.07
2023-01-20T13:49:13.467Z,7.15
2023-01-20T13:51:45.188Z,6.88
2023-01-20T13:54:29.116Z,6.82
2023-01-20T13:57:23.133Z,7.00
2023-01-20T13:59:50.398Z,6.72
2023-01-20T14:02:25.089Z,6.13
2023-01-20T14:04:52.995Z,6.72
2023-01-20T14:07:30.909Z,6.15
2023-01-20T14:10:00.410Z,5.78
2023-01-20T14:12:27.385Z,5.60
2023-01-20T14:14:54.750Z,5.78
2023-01-20T14:17:23.664Z,5.25
2023-01-20T14:19:53.921Z,6.57
2023-01-20T14:22:26.082Z,6.55
2023-01-20T14:24:59.971Z,5.60
2023-01-20T14:27:32.016Z,6.78
2023-01-20T14:30:14.476Z,7.07
2023-01-20T14:32:41.590Z,6.38
2023-01-20T14:35:28.139Z,6.18
2023-01-20T14:37:55.003Z,6.20
2023-01-20T14:40:31.161Z,6.00
2023-01-20T14:43:24.164Z,6.78
2023-01-20T14:45:52.144Z,5.60
2023-01-20T14:48:33.256Z,6.45
2023-01-20T14:51:04.190Z,9.32
2023-01-20T14:53:30.782Z,7.30
2023-01-20T14:56:02.997Z,7.68
2023-01-20T14:58:30.689Z,7.50
2023-01-20T15:01:01.929Z,7.80
2023-01-20T15:03:32.654Z,7.70
2023-01-20T15:06:22.543Z,7.32
2023-01-20T15:09:05.036Z,7.40
2023-01-20T15:11:33.517Z,7.45
2023-01-20T15:14:08.266Z,6.80
2023-01-20T15:16:38.848Z,7.22
2023-01-20T15:19:17.420Z,7.00
2023-01-20T15:21:56.997Z,7.18
2023-01-20T15:24:24.797Z,7.35
2023-01-20T15:26:53.829Z,7.22
2023-01-20T15:29:25.753Z,7.45
2023-01-20T15:31:53.638Z,6.93
2023-01-20T15:34:21.188Z,8.43
2023-01-20T15:36:49.030Z,8.60
2023-01-20T15:39:17.440Z,7.78
2023-01-20T15:41:45.179Z,7.68
2023-01-20T15:44:11.673Z,7.53
2023-01-20T15:46:39.967Z,7.72
2023-01-20T15:49:15.175Z,8.07
2023-01-20T15:51:42.731Z,8.00
2023-01-20T15:54:10.167Z,7.68
2023-01-20T15:56:39.528Z,7.53
2023-01-20T15:59:17.739Z,8.10
2023-01-20T16:01:50.212Z,7.68
2023-01-20T16:04:17.199Z,6.82
2023-01-20T16:09:40.089Z,7.72
2023-01-20T16:12:10.392Z,8.07
2023-01-20T16:14:36.866Z,8.55
2023-01-20T16:17:03.370Z,7.75
2023-01-20T16:19:29.802Z,8.45
2023-01-20T16:21:56.256Z,8.35
2023-01-20T16:24:22.767Z,8.43
2023-01-20T16:26:49.304Z,9.15
2023-01-20T16:29:15.845Z,9.93
2023-01-20T16:31:42.378Z,9.32
2023-01-20T16:34:08.918Z,9.00
2023-01-20T16:36:35.381Z,8.60
2023-01-20T16:39:01.901Z,8.55
2023-01-20T16:41:30.973Z,8.63
2023-01-20T16:43:58.512Z,8.02
2023-01-20T16:46:27.583Z,9.35
2023-01-20T16:49:01.896Z,8.25
2023-01-20T16:51:29.627Z,9.15
2023-01-20T16:53:57.198Z,8.90
2023-01-20T16:56:29.640Z,8.57
2023-01-20T16:58:57.909Z,8.18
2023-01-20T17:01:25.706Z,8.60
2023-01-20T17:03:54.619Z,9.43
2023-01-20T17:06:23.746Z,7.78
2023-01-20T17:08:53.000Z,7.82
2023-01-20T17:11:34.281Z,8.45
2023-01-20T17:14:05.995Z,8.40
2023-01-20T17:16:33.284Z,7.80
2023-01-20T17:19:01.324Z,7.63
2023-01-20T17:21:30.017Z,9.05
2023-01-20T17:24:02.281Z,8.98
2023-01-20T17:26:29.560Z,8.80
2023-01-20T17:29:04.023Z,7.20
2023-01-20T17:31:36.585Z,8.10
2023-01-20T17:34:09.457Z,10.40
2023-01-20T17:36:36.097Z,8.70
2023-01-20T17:39:05.443Z,9.93
2023-01-20T17:41:32.928Z,9.77
2023-01-20T17:43:59.618Z,9.77
2023-01-20T17:46:29.574Z,9.85
2023-01-20T17:48:57.365Z,10.13
2023-01-20T17:51:26.184Z,11.50
2023-01-20T17:53:52.723Z,13.90
2023-01-20T17:56:21.403Z,14.82
2023-01-20T17:58:48.988Z,15.50
2023-01-20T18:01:24.410Z,13.10
2023-01-20T18:03:52.530Z,12.10
2023-01-20T18:06:21.680Z,12.70
2023-01-20T18:08:52.074Z,14.07
2023-01-20T18:11:22.959Z,12.18
2023-01-20T18:13:51.500Z,12.40
2023-01-20T18:16:20.225Z,13.88
2023-01-20T18:18:48.557Z,12.55
2023-01-20T18:21:17.571Z,13.55
2023-01-20T18:23:45.162Z,14.73
2023-01-20T18:26:13.976Z,18.95
2023-01-20T18:28:41.614Z,21.00
2023-01-20T18:31:14.340Z,21.50
2023-01-20T18:33:47.553Z,20.38
2023-01-20T18:36:25.078Z,17.40
2023-01-20T18:38:56.846Z,15.20
2023-01-20T18:41:24.715Z,17.45
2023-01-20T18:43:51.393Z,13.75
2023-01-20T18:46:18.696Z,15.40
2023-01-20T18:48:47.321Z,14.88
2023-01-20T18:51:16.057Z,13.25
2023-01-20T18:53:44.472Z,13.38
2023-01-20T18:56:13.797Z,13.25
2023-01-20T18:58:47.239Z,11.35
2023-01-20T19:01:16.917Z,10.60
2023-01-20T19:03:46.069Z,11.85
2023-01-20T19:06:16.407Z,12.18
2023-01-20T19:08:44.861Z,9.85
2023-01-20T19:11:17.769Z,10.75
2023-01-20T19:13:45.999Z,13.88
2023-01-20T19:16:13.251Z,13.60
2023-01-20T19:23:56.800Z,14.02
2023-01-20T19:26:24.904Z,12.23
2023-01-20T19:29:02.762Z,12.52
2023-01-20T19:31:38.278Z,11.27
2023-01-20T19:34:06.150Z,12.65
2023-01-20T19:36:33.183Z,14.07
2023-01-20T19:39:01.138Z,13.45
2023-01-20T19:41:35.928Z,11.60
2023-01-20T19:44:04.593Z,12.68
2023-01-20T19:46:34.212Z,12.77
2023-01-20T19:49:02.392Z,13.90
2023-01-20T19:51:29.255Z,12.35
2023-01-20T19:56:26.414Z,10.57
2023-01-20T19:58:53.846Z,12.38
2023-01-20T20:01:21.527Z,10.30
2023-01-20T20:03:49.983Z,10.88
2023-01-20T20:06:28.642Z,10.68
2023-01-20T20:09:03.415Z,9.90
2023-01-20T20:11:30.712Z,11.00
2023-01-20T20:13:58.802Z,10.20
2023-01-20T20:16:27.613Z,10.00
2023-01-20T20:18:55.230Z,11.50
2023-01-20T20:21:22.139Z,10.45
2023-01-20T20:23:54.108Z,10.55
2023-01-20T20:26:22.689Z,10.95
2023-01-20T20:29:05.567Z,10.43
2023-01-20T20:31:34.316Z,10.13
2023-01-20T20:34:02.258Z,10.73
2023-01-20T20:36:30.939Z,11.57
2023-01-20T20:38:58.870Z,11.85
2023-01-20T20:41:29.117Z,12.68
2023-01-20T20:43:56.265Z,11.90
2023-01-20T20:46:22.797Z,11.32
2023-01-20T20:48:49.291Z,11.27
2023-01-20T20:51:16.871Z,11.70
2023-01-20T20:53:44.108Z,11.48
2023-01-20T20:56:13.377Z,11.10
2023-01-20T20:58:55.280Z,10.23
2023-01-20T21:01:26.849Z,10.63
2023-01-20T21:03:54.049Z,12.18
2023-01-20T21:06:22.697Z,11.63
2023-01-20T21:08:49.618Z,10.90
2023-01-20T21:11:16.151Z,11.85
2023-01-20T21:13:42.868Z,11.75
2023-01-20T21:16:14.390Z,10.75
2023-01-20T21:18:41.523Z,10.63
2023-01-20T21:21:12.007Z,12.10
2023-01-20T21:23:40.697Z,12.40
2023-01-20T21:26:10.355Z,12.52
2023-01-20T21:28:37.079Z,13.40
2023-01-20T21:31:09.092Z,14.00
2023-01-20T21:33:39.910Z,13.30
2023-01-20T21:36:09.048Z,14.52
2023-01-20T21:38:37.365Z,14.45
2023-01-20T21:41:10.076Z,13.02
2023-01-20T21:43:56.964Z,12.48
2023-01-20T21:46:24.399Z,12.50
2023-01-20T21:49:09.521Z,12.02
2023-01-20T21:51:54.557Z,13.23
2023-01-20T21:54:21.340Z,13.27
2023-01-20T21:59:15.238Z,12.57
2023-01-20T22:01:41.801Z,17.02
2023-01-20T22:04:08.323Z,15.90
2023-01-20T22:06:34.918Z,14.00
2023-01-20T22:09:01.787Z,13.80
2023-01-20T22:13:58.531Z,11.90
2023-01-20T22:16:25.753Z,12.82
2023-01-20T22:18:53.645Z,13.60
2023-01-20T22:21:22.293Z,14.60
2023-01-20T22:23:48.922Z,14.32
2023-01-20T22:26:15.458Z,13.90
2023-01-20T22:28:42.802Z,23.98
2023-01-20T22:31:17.249Z,21.00
2023-01-20T22:33:43.827Z,20.00
2023-01-20T22:36:10.381Z,19.58
2023-01-20T22:38:36.866Z,19.70
2023-01-20T22:41:08.414Z,18.52
2023-01-20T22:43:35.412Z,16.55
2023-01-20T22:46:03.066Z,15.77
2023-01-20T22:48:32.051Z,14.50
2023-01-20T22:51:04.861Z,14.13
2023-01-20T22:53:31.531Z,14.55
2023-01-20T22:56:06.087Z,14.95
2023-01-20T22:58:32.963Z,13.13
2023-01-20T23:03:26.914Z,13.63
2023-01-20T23:05:56.952Z,13.73
2023-01-20T23:08:27.910Z,14.15
2023-01-20T23:11:02.373Z,13.23
2023-01-20T23:13:31.792Z,15.18
2023-01-20T23:15:58.280Z,14.75
2023-01-20T23:18:25.463Z,12.50
2023-01-20T23:20:54.013Z,13.98
2023-01-20T23:23:21.892Z,16.80
2023-01-20T23:25:48.459Z,13.10
2023-01-20T23:28:15.504Z,22.58
2023-01-20T23:30:42.591Z,14.90
2023-01-20T23:33:10.056Z,12.02
2023-01-20T23:35:39.096Z,13.18
2023-01-20T23:38:09.260Z,12.63
2023-01-20T23:40:36.355Z,13.98
2023-01-20T23:43:02.955Z,13.45
2023-01-20T23:45:29.523Z,12.65
2023-01-20T23:47:56.142Z,12.35
2023-01-20T23:50:22.858Z,13.05
2023-01-20T23:52:49.367Z,11.70
2023-01-20T23:55:16.079Z,12.00
2023-01-20T23:57:42.584Z,12.25
